Uromiyeh, ایران

07:29 AM +0330 on ژانویه 22, 2018 (GMT +0330)
Uromiyeh | | Change Station

Elev 4341 ft 37.65 °N, 45.05 °E | Updated 29 minutes ago

ابرهاى پراكنده
ابرهاى پراكنده
25 °F
Feels Like 17 °F
N
7
باد متغير باد from غرب

امروز
High -- | Low -- °F
--% Chance of Precip.
دیروز
High -- | Low -- °F
Precip. -- در
فشار 30.09 در
ديد 6.2 مايل، ميل (در برابر كيلومتر
ابری Few 4000 ft
ابرهای پراکنده 17000 ft
باد سرد 17 °F
قطره شبنم 21 °F
رطوبت 86%
بارش باران 0.00 در
برف عمیق Not available.
7:40 AM 5:42 PM
Waxing Crescent, 23% visible
METAR OITR 220330Z 27006KT 9999 FEW040 SCT170 M04/M06 Q1019
فشار 30.09 در
ديد 6.2 مايل، ميل (در برابر كيلومتر
ابری Few 4000 ft
ابرهای پراکنده 17000 ft
باد سرد 17 °F
قطره شبنم 21 °F
رطوبت 86%
بارش باران 0.00 در
برف عمیق Not available.
7:40 AM 5:42 PM
Waxing Crescent, 23% visible
METAR OITR 220330Z 27006KT 9999 FEW040 SCT170 M04/M06 Q1019

Get Severe Weather Alerts

Thanks for signing up!

Be on the lookout for a verification email in your inbox.

You'll start receiving the daily forecast at 6 AM.

×

10-Day Weather Forecast

No radar image for this location.
×

Almanac

ستاره شناسی

Jan. 22, 2018 Rise Set
وقت حقیقی
تاریک و روشن اجتماعی
تاریک روشن دریایی
شفق و فلق نجومی
ماه
میزان روشنایی روز
طول روز
Tomorrow will be .
, % of the Moon is Illuminated

Today's Extremes

Country Highs Country Lows

Community

WunderPhotos

Category 6

Welcome to Category 6. This is the collective home for Weather Underground's featured writeups by Dr. Jeff Masters (right), Bob Henson (left), Chris Burt, and other regular contributors.

Nearby

تمیزی هوا

  تمیزی هوا AQ Index آلاینده
Not available.

عمق برف

Station Depth Elevation

Earthquake Activity

شهر Distance Mag. Time & Date
Minimum magnitude displayed is 2.5.

Coastal Water Temperatures

منطقه درجه حرارت

Stations

Nearby Weather Stations

Station Location دما باد سرد قطره شبنم رطوبت باد Precip. Elev ارتقا دادن Type